Time;durP1;ratioP1;P1;durP2;ratioP2;P2;SDS_P1;SDS_P2;PMS_P1;PMS_P2;Temp;Humidity;BMP_temperature;BMP_pressure;BME280_temperature;BME280_humidity;BME280_pressure;Samples;Min_cycle;Max_cycle;Signal;HPM_P1;HPM_P2
2021/09/17 00:02:01;;;;;;;16.95;11.95;;;;;;;22.81;100.00;98626.43;4397768;80;28561;-82
2021/09/17 00:08:03;;;;;;;16.32;12.03;;;;;;;22.82;100.00;98626.67;4345609;81;28507;-82
2021/09/17 00:14:04;;;;;;;17.20;12.00;;;;;;;22.61;100.00;98621.83;4319854;80;28529;-81
2021/09/17 00:20:08;;;;;;;17.27;11.83;;;;;;;22.51;100.00;98627.05;4290236;81;28468;-82
2021/09/17 00:26:11;;;;;;;17.17;11.73;;;;;;;22.56;100.00;98623.34;4298919;81;28459;-81
2021/09/17 00:32:12;;;;;;;15.23;11.08;;;;;;;22.61;100.00;98623.75;4203234;83;28468;-84
2021/09/17 00:38:13;;;;;;;18.70;11.40;;;;;;;22.42;100.00;98613.87;4203761;83;28441;-84
2021/09/17 00:44:27;;;;;;;16.35;11.25;;;;;;;22.64;100.00;98605.30;4205032;83;28503;-84
2021/09/17 00:50:29;;;;;;;16.93;12.10;;;;;;;22.61;100.00;98592.25;4306696;81;28506;-83
2021/09/17 00:56:33;;;;;;;17.67;11.80;;;;;;;22.62;100.00;98597.42;4208391;83;28485;-83
2021/09/17 01:02:35;;;;;;;14.47;10.55;;;;;;;22.61;100.00;98588.14;4311655;81;28461;-83
2021/09/17 01:08:38;;;;;;;13.83;10.30;;;;;;;22.68;100.00;98572.03;4329695;81;28542;-83
2021/09/17 01:14:40;;;;;;;15.10;10.68;;;;;;;22.62;100.00;98562.36;4397743;79;28488;-83
2021/09/17 01:20:42;;;;;;;16.90;11.75;;;;;;;22.68;100.00;98560.49;4292457;81;28467;-81
2021/09/17 01:26:44;;;;;;;17.82;11.93;;;;;;;22.46;100.00;98545.02;4343696;80;28451;-82
2021/09/17 01:32:46;;;;;;;18.52;12.60;;;;;;;22.27;100.00;98541.22;4234827;83;28486;-82
2021/09/17 01:38:47;;;;;;;18.50;11.83;;;;;;;22.45;100.00;98532.46;4316720;81;28522;-82
2021/09/17 01:44:48;;;;;;;17.82;11.63;;;;;;;22.41;100.00;98532.30;4356056;80;28550;-82
2021/09/17 01:50:50;;;;;;;15.35;10.88;;;;;;;22.55;100.00;98514.91;4383060;80;28511;-83
2021/09/17 01:56:51;;;;;;;18.82;11.10;;;;;;;22.47;100.00;98517.05;4363063;80;28443;-82
2021/09/17 02:02:52;;;;;;;18.95;11.90;;;;;;;22.45;100.00;98514.66;4208293;83;28446;-82
2021/09/17 02:08:56;;;;;;;15.70;10.63;;;;;;;22.38;100.00;98511.59;4266825;81;28529;-82
2021/09/17 02:14:57;;;;;;;16.15;10.35;;;;;;;22.54;100.00;98504.53;4270232;81;28449;-81
2021/09/17 02:20:59;;;;;;;15.63;11.10;;;;;;;22.51;100.00;98494.78;4292190;81;28454;-82
2021/09/17 02:27:00;;;;;;;18.55;13.08;;;;;;;22.45;100.00;98491.93;4308165;81;28544;-82
2021/09/17 02:33:02;;;;;;;16.35;11.50;;;;;;;22.38;100.00;98486.95;4245585;83;28516;-82
2021/09/17 02:39:04;;;;;;;14.58;10.25;;;;;;;22.36;100.00;98482.36;4330392;80;28453;-82
2021/09/17 02:45:08;;;;;;;17.70;12.25;;;;;;;22.52;100.00;98471.74;4298444;81;28904;-83
2021/09/17 02:51:09;;;;;;;18.60;12.40;;;;;;;21.96;100.00;98467.71;4298824;81;28462;-84
2021/09/17 02:57:10;;;;;;;19.75;13.55;;;;;;;21.86;100.00;98465.28;4302546;81;28467;-81
2021/09/17 03:03:15;;;;;;;20.72;13.50;;;;;;;21.57;100.00;98464.73;4311690;81;28632;-82
2021/09/17 03:09:15;;;;;;;21.60;14.30;;;;;;;21.55;100.00;98456.02;4262075;82;28545;-83
2021/09/17 03:15:17;;;;;;;21.07;14.20;;;;;;;21.13;100.00;98452.84;4255372;82;28440;-83
2021/09/17 03:21:18;;;;;;;21.23;14.35;;;;;;;21.36;100.00;98449.47;4273801;82;28442;-85
2021/09/17 03:27:19;;;;;;;22.60;13.80;;;;;;;21.57;100.00;98446.14;4250012;82;28516;-84
2021/09/17 03:33:21;;;;;;;22.20;14.80;;;;;;;21.28;100.00;98448.33;4279573;82;28439;-85
2021/09/17 03:39:22;;;;;;;23.90;15.25;;;;;;;21.27;100.00;98430.87;4243039;82;28458;-84
2021/09/17 03:45:23;;;;;;;25.80;14.93;;;;;;;21.32;100.00;98437.58;4278839;82;28442;-84
2021/09/17 03:51:25;;;;;;;24.92;15.53;;;;;;;21.26;100.00;98441.02;4255753;82;28470;-82
2021/09/17 03:57:26;;;;;;;25.25;15.80;;;;;;;21.01;100.00;98435.12;4263303;82;28426;-83
2021/09/17 04:03:28;;;;;;;22.17;15.00;;;;;;;21.02;100.00;98435.95;4277624;82;28463;-83
2021/09/17 04:09:29;;;;;;;23.75;15.00;;;;;;;20.87;100.00;98436.59;4266004;82;28545;-82
2021/09/17 04:15:30;;;;;;;22.58;14.33;;;;;;;20.72;100.00;98440.53;4285300;81;28463;-84
2021/09/17 04:21:31;;;;;;;22.87;14.83;;;;;;;21.01;100.00;98442.53;4342097;81;28474;-83
2021/09/17 04:27:33;;;;;;;22.02;14.10;;;;;;;20.45;100.00;98446.39;4349289;80;28480;-83
2021/09/17 04:33:34;;;;;;;14.70;10.65;;;;;;;20.80;100.00;98452.61;4383260;80;28527;-80
2021/09/17 04:39:35;;;;;;;11.63;7.97;;;;;;;19.65;100.00;98455.03;4323908;81;28527;-81
2021/09/17 04:45:37;;;;;;;10.88;7.37;;;;;;;20.57;100.00;98466.86;4331480;81;28474;-81
2021/09/17 04:51:38;;;;;;;11.38;7.50;;;;;;;20.61;100.00;98455.00;4345907;80;28524;-83
2021/09/17 04:57:40;;;;;;;10.65;7.10;;;;;;;20.21;100.00;98442.61;4373471;80;28460;-82
2021/09/17 05:03:43;;;;;;;8.85;5.90;;;;;;;20.57;100.00;98451.30;4382797;80;28521;-84
2021/09/17 05:09:45;;;;;;;10.05;6.72;;;;;;;19.56;100.00;98465.05;4374449;80;28904;-83
2021/09/17 05:15:46;;;;;;;10.38;5.85;;;;;;;20.50;100.00;98461.02;4322624;82;28474;-84
2021/09/17 05:21:47;;;;;;;11.75;6.60;;;;;;;20.44;100.00;98473.99;4311419;81;28547;-83
2021/09/17 05:27:49;;;;;;;10.08;6.70;;;;;;;20.15;100.00;98465.12;4336184;81;28512;-82
2021/09/17 05:33:50;;;;;;;8.70;6.12;;;;;;;19.87;100.00;98465.74;4287656;81;28510;-84
2021/09/17 05:39:53;;;;;;;7.95;5.70;;;;;;;19.69;100.00;98468.87;4293608;82;28504;-82
2021/09/17 05:45:54;;;;;;;8.78;5.67;;;;;;;19.31;100.00;98475.34;4193981;83;28464;-82
2021/09/17 05:51:56;;;;;;;7.83;5.37;;;;;;;19.79;100.00;98480.34;4217834;83;28554;-81
2021/09/17 05:57:57;;;;;;;7.03;4.87;;;;;;;19.90;100.00;98482.31;4213362;83;28492;-80
2021/09/17 06:03:59;;;;;;;6.40;4.05;;;;;;;19.34;100.00;98494.63;4202429;83;28462;-82
2021/09/17 06:10:00;;;;;;;6.05;4.92;;;;;;;19.44;100.00;98488.72;4205145;81;28491;-79
2021/09/17 06:16:02;;;;;;;7.10;4.00;;;;;;;20.29;100.00;98499.19;4381664;80;28450;-81
2021/09/17 06:22:04;;;;;;;4.92;3.62;;;;;;;20.54;100.00;98500.26;4330704;80;28485;-79
2021/09/17 06:28:06;;;;;;;5.28;4.10;;;;;;;20.77;100.00;98510.59;4353692;80;28473;-81
2021/09/17 06:34:08;;;;;;;6.75;4.50;;;;;;;20.74;100.00;98515.31;4357282;79;28517;-80
2021/09/17 06:40:11;;;;;;;5.20;3.95;;;;;;;20.98;100.00;98523.20;4330885;80;28498;-82
